sensor_id;sensor_type;location;lat;lon;timestamp;P1;durP1;ratioP1;P2;durP2;ratioP2
38379;SDS011;38377;47.418;18.882;2023-03-04T00:01:43;24.53;;;14.43;;
38379;SDS011;38377;47.418;18.882;2023-03-04T00:04:09;23.97;;;13.40;;
38379;SDS011;38377;47.418;18.882;2023-03-04T00:06:35;23.90;;;14.07;;
38379;SDS011;38377;47.418;18.882;2023-03-04T00:09:00;24.33;;;14.10;;
38379;SDS011;38377;47.418;18.882;2023-03-04T00:11:28;23.20;;;13.77;;
38379;SDS011;38377;47.418;18.882;2023-03-04T00:13:54;26.70;;;13.73;;
38379;SDS011;38377;47.418;18.882;2023-03-04T00:16:20;25.47;;;14.53;;
38379;SDS011;38377;47.418;18.882;2023-03-04T00:18:46;26.50;;;14.63;;
38379;SDS011;38377;47.418;18.882;2023-03-04T00:21:12;20.33;;;12.43;;
38379;SDS011;38377;47.418;18.882;2023-03-04T00:23:37;22.10;;;13.13;;
38379;SDS011;38377;47.418;18.882;2023-03-04T00:26:05;20.90;;;12.03;;
38379;SDS011;38377;47.418;18.882;2023-03-04T00:28:31;25.27;;;12.20;;
38379;SDS011;38377;47.418;18.882;2023-03-04T00:30:57;20.33;;;11.83;;
38379;SDS011;38377;47.418;18.882;2023-03-04T00:33:23;25.77;;;13.10;;
38379;SDS011;38377;47.418;18.882;2023-03-04T00:35:48;23.80;;;12.47;;
38379;SDS011;38377;47.418;18.882;2023-03-04T00:38:14;21.37;;;12.37;;
38379;SDS011;38377;47.418;18.882;2023-03-04T00:40:40;22.03;;;12.57;;
38379;SDS011;38377;47.418;18.882;2023-03-04T00:43:06;20.47;;;12.33;;
38379;SDS011;38377;47.418;18.882;2023-03-04T00:45:31;22.67;;;12.83;;
38379;SDS011;38377;47.418;18.882;2023-03-04T00:47:57;22.27;;;12.73;;
38379;SDS011;38377;47.418;18.882;2023-03-04T00:50:22;21.40;;;12.00;;
38379;SDS011;38377;47.418;18.882;2023-03-04T00:52:48;20.67;;;12.53;;
38379;SDS011;38377;47.418;18.882;2023-03-04T00:55:14;24.33;;;12.80;;
38379;SDS011;38377;47.418;18.882;2023-03-04T00:57:39;21.10;;;12.40;;
38379;SDS011;38377;47.418;18.882;2023-03-04T01:00:05;21.33;;;12.13;;
38379;SDS011;38377;47.418;18.882;2023-03-04T01:02:31;22.57;;;12.70;;
38379;SDS011;38377;47.418;18.882;2023-03-04T01:04:57;22.87;;;12.90;;
38379;SDS011;38377;47.418;18.882;2023-03-04T01:07:23;22.47;;;13.23;;
38379;SDS011;38377;47.418;18.882;2023-03-04T01:09:48;27.07;;;13.70;;
38379;SDS011;38377;47.418;18.882;2023-03-04T01:12:14;23.10;;;13.13;;
38379;SDS011;38377;47.418;18.882;2023-03-04T01:14:40;24.83;;;13.37;;
38379;SDS011;38377;47.418;18.882;2023-03-04T01:17:06;21.67;;;12.50;;
38379;SDS011;38377;47.418;18.882;2023-03-04T01:19:31;22.77;;;12.47;;
38379;SDS011;38377;47.418;18.882;2023-03-04T01:21:57;23.97;;;13.33;;
38379;SDS011;38377;47.418;18.882;2023-03-04T01:24:22;22.17;;;13.60;;
38379;SDS011;38377;47.418;18.882;2023-03-04T01:26:48;21.40;;;12.67;;
38379;SDS011;38377;47.418;18.882;2023-03-04T01:29:14;19.33;;;11.67;;
38379;SDS011;38377;47.418;18.882;2023-03-04T01:31:39;22.70;;;12.07;;
38379;SDS011;38377;47.418;18.882;2023-03-04T01:34:05;19.60;;;11.27;;
38379;SDS011;38377;47.418;18.882;2023-03-04T01:36:33;19.83;;;11.40;;
38379;SDS011;38377;47.418;18.882;2023-03-04T01:38:59;19.33;;;11.37;;
38379;SDS011;38377;47.418;18.882;2023-03-04T01:41:25;24.70;;;12.87;;
38379;SDS011;38377;47.418;18.882;2023-03-04T01:43:51;23.17;;;12.23;;
38379;SDS011;38377;47.418;18.882;2023-03-04T01:46:21;19.75;;;11.20;;
38379;SDS011;38377;47.418;18.882;2023-03-04T01:48:48;24.90;;;13.10;;
38379;SDS011;38377;47.418;18.882;2023-03-04T01:51:15;22.40;;;13.97;;
38379;SDS011;38377;47.418;18.882;2023-03-04T01:53:42;20.90;;;12.77;;
38379;SDS011;38377;47.418;18.882;2023-03-04T01:56:11;22.43;;;12.07;;
38379;SDS011;38377;47.418;18.882;2023-03-04T01:58:41;20.33;;;11.57;;
38379;SDS011;38377;47.418;18.882;2023-03-04T02:01:07;20.60;;;11.33;;
38379;SDS011;38377;47.418;18.882;2023-03-04T02:03:35;18.07;;;11.23;;
38379;SDS011;38377;47.418;18.882;2023-03-04T02:06:01;20.67;;;12.07;;
38379;SDS011;38377;47.418;18.882;2023-03-04T02:08:27;20.00;;;11.33;;
38379;SDS011;38377;47.418;18.882;2023-03-04T02:10:52;22.23;;;12.10;;
38379;SDS011;38377;47.418;18.882;2023-03-04T02:13:19;21.97;;;13.00;;
38379;SDS011;38377;47.418;18.882;2023-03-04T02:15:45;22.40;;;11.90;;
38379;SDS011;38377;47.418;18.882;2023-03-04T02:18:19;19.70;;;11.43;;
38379;SDS011;38377;47.418;18.882;2023-03-04T02:20:53;22.27;;;12.07;;
38379;SDS011;38377;47.418;18.882;2023-03-04T02:23:34;22.83;;;12.37;;
38379;SDS011;38377;47.418;18.882;2023-03-04T02:26:17;17.93;;;10.73;;
38379;SDS011;38377;47.418;18.882;2023-03-04T02:28:49;19.97;;;11.17;;
38379;SDS011;38377;47.418;18.882;2023-03-04T02:31:23;22.37;;;11.20;;
38379;SDS011;38377;47.418;18.882;2023-03-04T02:36:24;19.80;;;11.10;;
38379;SDS011;38377;47.418;18.882;2023-03-04T02:38:51;21.83;;;11.57;;
38379;SDS011;38377;47.418;18.882;2023-03-04T02:41:19;18.60;;;10.53;;
38379;SDS011;38377;47.418;18.882;2023-03-04T02:43:52;19.80;;;11.43;;
38379;SDS011;38377;47.418;18.882;2023-03-04T02:46:19;20.55;;;10.77;;
38379;SDS011;38377;47.418;18.882;2023-03-04T02:48:45;20.03;;;12.57;;
38379;SDS011;38377;47.418;18.882;2023-03-04T02:51:10;20.00;;;11.97;;
38379;SDS011;38377;47.418;18.882;2023-03-04T02:53:36;17.70;;;9.90;;
38379;SDS011;38377;47.418;18.882;2023-03-04T02:56:02;21.20;;;10.90;;
38379;SDS011;38377;47.418;18.882;2023-03-04T02:58:28;19.30;;;10.43;;
38379;SDS011;38377;47.418;18.882;2023-03-04T03:00:54;21.93;;;11.20;;
38379;SDS011;38377;47.418;18.882;2023-03-04T03:03:21;19.27;;;11.03;;
38379;SDS011;38377;47.418;18.882;2023-03-04T03:05:47;20.37;;;10.50;;
38379;SDS011;38377;47.418;18.882;2023-03-04T03:08:13;19.17;;;11.00;;
38379;SDS011;38377;47.418;18.882;2023-03-04T03:10:38;16.70;;;10.47;;
38379;SDS011;38377;47.418;18.882;2023-03-04T03:13:04;22.33;;;11.97;;
38379;SDS011;38377;47.418;18.882;2023-03-04T03:15:30;22.73;;;11.10;;
38379;SDS011;38377;47.418;18.882;2023-03-04T03:17:56;17.33;;;10.13;;
38379;SDS011;38377;47.418;18.882;2023-03-04T03:20:22;18.60;;;9.97;;
38379;SDS011;38377;47.418;18.882;2023-03-04T03:22:47;17.83;;;10.07;;
38379;SDS011;38377;47.418;18.882;2023-03-04T03:25:14;16.13;;;10.27;;
38379;SDS011;38377;47.418;18.882;2023-03-04T03:27:40;21.17;;;9.60;;
38379;SDS011;38377;47.418;18.882;2023-03-04T03:30:07;19.53;;;10.73;;
38379;SDS011;38377;47.418;18.882;2023-03-04T03:32:34;19.37;;;9.67;;
38379;SDS011;38377;47.418;18.882;2023-03-04T03:35:00;16.83;;;9.30;;
38379;SDS011;38377;47.418;18.882;2023-03-04T03:37:27;18.77;;;10.63;;
38379;SDS011;38377;47.418;18.882;2023-03-04T03:39:52;19.27;;;10.97;;
38379;SDS011;38377;47.418;18.882;2023-03-04T03:42:18;18.60;;;10.30;;
38379;SDS011;38377;47.418;18.882;2023-03-04T03:44:44;15.27;;;9.23;;
38379;SDS011;38377;47.418;18.882;2023-03-04T03:47:09;18.63;;;10.20;;
38379;SDS011;38377;47.418;18.882;2023-03-04T03:49:35;18.47;;;10.93;;
38379;SDS011;38377;47.418;18.882;2023-03-04T03:52:01;17.60;;;9.77;;
38379;SDS011;38377;47.418;18.882;2023-03-04T03:54:27;16.23;;;8.93;;
38379;SDS011;38377;47.418;18.882;2023-03-04T03:56:52;20.80;;;9.27;;
38379;SDS011;38377;47.418;18.882;2023-03-04T03:59:18;16.30;;;8.63;;
38379;SDS011;38377;47.418;18.882;2023-03-04T04:01:44;19.13;;;9.50;;
38379;SDS011;38377;47.418;18.882;2023-03-04T04:04:09;15.77;;;9.33;;
38379;SDS011;38377;47.418;18.882;2023-03-04T04:06:35;15.97;;;9.77;;
38379;SDS011;38377;47.418;18.882;2023-03-04T04:09:01;18.03;;;9.70;;
38379;SDS011;38377;47.418;18.882;2023-03-04T04:11:27;17.70;;;9.73;;
38379;SDS011;38377;47.418;18.882;2023-03-04T04:13:53;20.20;;;9.87;;
38379;SDS011;38377;47.418;18.882;2023-03-04T04:16:18;18.73;;;9.90;;
38379;SDS011;38377;47.418;18.882;2023-03-04T04:18:44;19.60;;;9.47;;
38379;SDS011;38377;47.418;18.882;2023-03-04T04:21:10;17.73;;;9.10;;
38379;SDS011;38377;47.418;18.882;2023-03-04T04:23:35;17.40;;;9.10;;
38379;SDS011;38377;47.418;18.882;2023-03-04T04:26:01;18.80;;;9.80;;
38379;SDS011;38377;47.418;18.882;2023-03-04T04:28:27;18.37;;;9.13;;
38379;SDS011;38377;47.418;18.882;2023-03-04T04:30:52;16.23;;;8.50;;
38379;SDS011;38377;47.418;18.882;2023-03-04T04:33:19;19.30;;;9.77;;
38379;SDS011;38377;47.418;18.882;2023-03-04T04:35:45;20.87;;;10.00;;
38379;SDS011;38377;47.418;18.882;2023-03-04T04:38:10;17.10;;;9.83;;
38379;SDS011;38377;47.418;18.882;2023-03-04T04:40:36;17.67;;;9.40;;
38379;SDS011;38377;47.418;18.882;2023-03-04T04:43:02;21.10;;;10.27;;
38379;SDS011;38377;47.418;18.882;2023-03-04T04:45:28;19.23;;;9.60;;
38379;SDS011;38377;47.418;18.882;2023-03-04T04:47:53;19.33;;;10.47;;
38379;SDS011;38377;47.418;18.882;2023-03-04T04:50:21;22.73;;;11.07;;
38379;SDS011;38377;47.418;18.882;2023-03-04T04:52:47;22.47;;;11.13;;
38379;SDS011;38377;47.418;18.882;2023-03-04T04:55:14;17.50;;;10.00;;
38379;SDS011;38377;47.418;18.882;2023-03-04T04:57:40;22.77;;;11.00;;
38379;SDS011;38377;47.418;18.882;2023-03-04T05:00:06;20.20;;;11.33;;
38379;SDS011;38377;47.418;18.882;2023-03-04T05:02:34;25.00;;;12.37;;
38379;SDS011;38377;47.418;18.882;2023-03-04T05:05:01;21.50;;;11.57;;
38379;SDS011;38377;47.418;18.882;2023-03-04T05:07:30;24.07;;;13.03;;
38379;SDS011;38377;47.418;18.882;2023-03-04T05:09:56;23.60;;;13.97;;
38379;SDS011;38377;47.418;18.882;2023-03-04T05:12:21;24.57;;;13.73;;
38379;SDS011;38377;47.418;18.882;2023-03-04T05:14:47;26.63;;;14.27;;
38379;SDS011;38377;47.418;18.882;2023-03-04T05:17:12;23.20;;;12.97;;
38379;SDS011;38377;47.418;18.882;2023-03-04T05:19:38;29.10;;;15.13;;
38379;SDS011;38377;47.418;18.882;2023-03-04T05:22:04;23.47;;;13.13;;
38379;SDS011;38377;47.418;18.882;2023-03-04T05:24:29;23.13;;;12.97;;
38379;SDS011;38377;47.418;18.882;2023-03-04T05:26:55;27.07;;;14.37;;
38379;SDS011;38377;47.418;18.882;2023-03-04T05:29:21;27.47;;;12.27;;
38379;SDS011;38377;47.418;18.882;2023-03-04T05:31:47;26.80;;;14.43;;
38379;SDS011;38377;47.418;18.882;2023-03-04T05:34:12;27.43;;;13.57;;
38379;SDS011;38377;47.418;18.882;2023-03-04T05:36:38;29.00;;;15.00;;
38379;SDS011;38377;47.418;18.882;2023-03-04T05:39:04;29.10;;;15.23;;
38379;SDS011;38377;47.418;18.882;2023-03-04T05:41:30;27.27;;;15.57;;
38379;SDS011;38377;47.418;18.882;2023-03-04T05:43:55;32.07;;;15.43;;
38379;SDS011;38377;47.418;18.882;2023-03-04T05:46:21;31.07;;;16.87;;
38379;SDS011;38377;47.418;18.882;2023-03-04T05:48:49;32.27;;;17.90;;
38379;SDS011;38377;47.418;18.882;2023-03-04T05:51:18;30.40;;;16.70;;
38379;SDS011;38377;47.418;18.882;2023-03-04T05:53:44;30.73;;;16.83;;
38379;SDS011;38377;47.418;18.882;2023-03-04T05:56:11;31.53;;;17.33;;
38379;SDS011;38377;47.418;18.882;2023-03-04T05:58:40;33.50;;;17.47;;
38379;SDS011;38377;47.418;18.882;2023-03-04T06:01:05;31.13;;;17.27;;
38379;SDS011;38377;47.418;18.882;2023-03-04T06:03:31;34.47;;;17.50;;
38379;SDS011;38377;47.418;18.882;2023-03-04T06:05:57;35.30;;;18.53;;
38379;SDS011;38377;47.418;18.882;2023-03-04T06:08:23;34.63;;;17.23;;
38379;SDS011;38377;47.418;18.882;2023-03-04T06:10:51;35.70;;;18.23;;
38379;SDS011;38377;47.418;18.882;2023-03-04T06:13:18;31.03;;;16.37;;
38379;SDS011;38377;47.418;18.882;2023-03-04T06:15:44;30.83;;;17.67;;
38379;SDS011;38377;47.418;18.882;2023-03-04T06:18:09;34.17;;;19.20;;
38379;SDS011;38377;47.418;18.882;2023-03-04T06:20:35;33.97;;;17.70;;
38379;SDS011;38377;47.418;18.882;2023-03-04T06:23:01;32.30;;;17.80;;
38379;SDS011;38377;47.418;18.882;2023-03-04T06:25:28;34.70;;;18.63;;
38379;SDS011;38377;47.418;18.882;2023-03-04T06:27:53;32.47;;;18.37;;
38379;SDS011;38377;47.418;18.882;2023-03-04T06:30:19;32.50;;;17.70;;
38379;SDS011;38377;47.418;18.882;2023-03-04T06:32:45;32.40;;;17.40;;
38379;SDS011;38377;47.418;18.882;2023-03-04T06:35:12;35.73;;;19.03;;
38379;SDS011;38377;47.418;18.882;2023-03-04T06:37:38;33.63;;;17.97;;
38379;SDS011;38377;47.418;18.882;2023-03-04T06:40:05;34.67;;;19.23;;
38379;SDS011;38377;47.418;18.882;2023-03-04T06:42:32;32.33;;;18.17;;
38379;SDS011;38377;47.418;18.882;2023-03-04T06:44:58;36.47;;;19.67;;
38379;SDS011;38377;47.418;18.882;2023-03-04T06:47:24;33.33;;;19.53;;
38379;SDS011;38377;47.418;18.882;2023-03-04T06:49:50;33.30;;;18.50;;
38379;SDS011;38377;47.418;18.882;2023-03-04T06:52:16;38.10;;;20.50;;
38379;SDS011;38377;47.418;18.882;2023-03-04T06:54:42;37.90;;;18.90;;
38379;SDS011;38377;47.418;18.882;2023-03-04T06:57:08;33.97;;;19.80;;
38379;SDS011;38377;47.418;18.882;2023-03-04T06:59:33;36.73;;;19.33;;
38379;SDS011;38377;47.418;18.882;2023-03-04T07:01:59;37.47;;;19.37;;
38379;SDS011;38377;47.418;18.882;2023-03-04T07:04:25;32.93;;;19.53;;
38379;SDS011;38377;47.418;18.882;2023-03-04T07:06:50;33.13;;;18.90;;
38379;SDS011;38377;47.418;18.882;2023-03-04T07:09:17;33.53;;;20.40;;
38379;SDS011;38377;47.418;18.882;2023-03-04T07:11:43;34.30;;;20.27;;
38379;SDS011;38377;47.418;18.882;2023-03-04T07:14:09;33.90;;;20.40;;
38379;SDS011;38377;47.418;18.882;2023-03-04T07:16:35;36.60;;;20.00;;
38379;SDS011;38377;47.418;18.882;2023-03-04T07:19:01;37.73;;;19.97;;
38379;SDS011;38377;47.418;18.882;2023-03-04T07:21:26;38.20;;;20.40;;
38379;SDS011;38377;47.418;18.882;2023-03-04T07:23:52;35.97;;;20.70;;
38379;SDS011;38377;47.418;18.882;2023-03-04T07:26:18;35.57;;;19.97;;
38379;SDS011;38377;47.418;18.882;2023-03-04T07:28:44;34.63;;;20.13;;
38379;SDS011;38377;47.418;18.882;2023-03-04T07:31:21;36.47;;;20.10;;
38379;SDS011;38377;47.418;18.882;2023-03-04T07:33:49;34.97;;;20.67;;
38379;SDS011;38377;47.418;18.882;2023-03-04T07:36:15;37.83;;;21.23;;
38379;SDS011;38377;47.418;18.882;2023-03-04T07:38:47;36.33;;;21.17;;
38379;SDS011;38377;47.418;18.882;2023-03-04T07:41:14;36.03;;;20.73;;
38379;SDS011;38377;47.418;18.882;2023-03-04T07:43:40;38.37;;;21.50;;
38379;SDS011;38377;47.418;18.882;2023-03-04T07:46:06;34.43;;;20.63;;
38379;SDS011;38377;47.418;18.882;2023-03-04T07:48:32;41.23;;;21.17;;
38379;SDS011;38377;47.418;18.882;2023-03-04T07:51:17;36.40;;;21.33;;
38379;SDS011;38377;47.418;18.882;2023-03-04T07:53:45;39.23;;;22.30;;
38379;SDS011;38377;47.418;18.882;2023-03-04T07:56:13;38.63;;;21.40;;
38379;SDS011;38377;47.418;18.882;2023-03-04T07:58:41;35.90;;;22.07;;
38379;SDS011;38377;47.418;18.882;2023-03-04T08:01:11;34.67;;;21.13;;
38379;SDS011;38377;47.418;18.882;2023-03-04T08:03:38;32.23;;;19.63;;
38379;SDS011;38377;47.418;18.882;2023-03-04T08:06:05;33.05;;;19.55;;
38379;SDS011;38377;47.418;18.882;2023-03-04T08:08:32;31.83;;;20.15;;
38379;SDS011;38377;47.418;18.882;2023-03-04T08:10:58;34.42;;;18.48;;
38379;SDS011;38377;47.418;18.882;2023-03-04T08:13:25;31.80;;;18.98;;
38379;SDS011;38377;47.418;18.882;2023-03-04T08:15:50;25.60;;;16.63;;
38379;SDS011;38377;47.418;18.882;2023-03-04T08:18:16;28.48;;;17.42;;
38379;SDS011;38377;47.418;18.882;2023-03-04T08:20:42;29.90;;;17.88;;
38379;SDS011;38377;47.418;18.882;2023-03-04T08:23:08;25.98;;;17.15;;
38379;SDS011;38377;47.418;18.882;2023-03-04T08:25:38;30.48;;;17.02;;
38379;SDS011;38377;47.418;18.882;2023-03-04T08:28:05;27.75;;;17.45;;
38379;SDS011;38377;47.418;18.882;2023-03-04T08:30:32;27.90;;;14.75;;
38379;SDS011;38377;47.418;18.882;2023-03-04T08:32:57;27.10;;;15.93;;
38379;SDS011;38377;47.418;18.882;2023-03-04T08:35:23;26.38;;;15.75;;
38379;SDS011;38377;47.418;18.882;2023-03-04T08:37:49;25.80;;;16.95;;
38379;SDS011;38377;47.418;18.882;2023-03-04T08:40:14;25.52;;;14.90;;
38379;SDS011;38377;47.418;18.882;2023-03-04T08:42:40;24.08;;;15.05;;
38379;SDS011;38377;47.418;18.882;2023-03-04T08:45:07;24.38;;;14.95;;
38379;SDS011;38377;47.418;18.882;2023-03-04T08:47:33;26.17;;;16.10;;
38379;SDS011;38377;47.418;18.882;2023-03-04T08:49:59;25.63;;;15.80;;
38379;SDS011;38377;47.418;18.882;2023-03-04T08:52:25;27.17;;;15.07;;
38379;SDS011;38377;47.418;18.882;2023-03-04T08:54:54;24.15;;;14.30;;
38379;SDS011;38377;47.418;18.882;2023-03-04T08:57:19;26.65;;;15.43;;
38379;SDS011;38377;47.418;18.882;2023-03-04T08:59:45;23.88;;;14.55;;
38379;SDS011;38377;47.418;18.882;2023-03-04T09:02:11;21.35;;;13.02;;
38379;SDS011;38377;47.418;18.882;2023-03-04T09:04:37;20.85;;;13.55;;
38379;SDS011;38377;47.418;18.882;2023-03-04T09:07:04;22.80;;;14.02;;
38379;SDS011;38377;47.418;18.882;2023-03-04T09:09:30;22.85;;;13.82;;
38379;SDS011;38377;47.418;18.882;2023-03-04T09:11:55;22.73;;;14.88;;
38379;SDS011;38377;47.418;18.882;2023-03-04T09:14:21;24.95;;;15.38;;
38379;SDS011;38377;47.418;18.882;2023-03-04T09:16:47;24.65;;;14.35;;
38379;SDS011;38377;47.418;18.882;2023-03-04T09:19:12;24.63;;;14.38;;
38379;SDS011;38377;47.418;18.882;2023-03-04T09:21:38;24.02;;;15.40;;
38379;SDS011;38377;47.418;18.882;2023-03-04T09:24:04;24.13;;;14.95;;
38379;SDS011;38377;47.418;18.882;2023-03-04T09:26:30;26.05;;;15.07;;
38379;SDS011;38377;47.418;18.882;2023-03-04T09:28:56;25.05;;;14.82;;
38379;SDS011;38377;47.418;18.882;2023-03-04T09:31:23;25.35;;;15.00;;
38379;SDS011;38377;47.418;18.882;2023-03-04T09:33:50;25.67;;;15.57;;
38379;SDS011;38377;47.418;18.882;2023-03-04T09:36:17;25.67;;;15.32;;
38379;SDS011;38377;47.418;18.882;2023-03-04T09:38:43;25.83;;;15.05;;
38379;SDS011;38377;47.418;18.882;2023-03-04T09:41:12;25.73;;;16.20;;
38379;SDS011;38377;47.418;18.882;2023-03-04T09:43:41;30.90;;;16.38;;
38379;SDS011;38377;47.418;18.882;2023-03-04T09:46:12;24.63;;;15.85;;
38379;SDS011;38377;47.418;18.882;2023-03-04T09:48:43;25.08;;;14.90;;
38379;SDS011;38377;47.418;18.882;2023-03-04T09:56:25;24.67;;;15.30;;
38379;SDS011;38377;47.418;18.882;2023-03-04T09:58:56;24.77;;;15.10;;
38379;SDS011;38377;47.418;18.882;2023-03-04T10:01:41;24.80;;;15.23;;
38379;SDS011;38377;47.418;18.882;2023-03-04T10:06:49;27.63;;;16.45;;
38379;SDS011;38377;47.418;18.882;2023-03-04T10:12:21;26.67;;;15.25;;
38379;SDS011;38377;47.418;18.882;2023-03-04T10:14:55;28.98;;;15.48;;
38379;SDS011;38377;47.418;18.882;2023-03-04T10:17:37;22.55;;;14.98;;
38379;SDS011;38377;47.418;18.882;2023-03-04T10:20:11;27.80;;;15.98;;
38379;SDS011;38377;47.418;18.882;2023-03-04T10:22:55;25.25;;;16.00;;
38379;SDS011;38377;47.418;18.882;2023-03-04T10:25:24;25.48;;;15.75;;
38379;SDS011;38377;47.418;18.882;2023-03-04T10:30:31;23.00;;;15.23;;
38379;SDS011;38377;47.418;18.882;2023-03-04T10:33:04;24.20;;;16.08;;
38379;SDS011;38377;47.418;18.882;2023-03-04T10:35:42;22.50;;;15.00;;
38379;SDS011;38377;47.418;18.882;2023-03-04T10:40:38;27.50;;;15.48;;
38379;SDS011;38377;47.418;18.882;2023-03-04T10:43:08;25.25;;;15.00;;
38379;SDS011;38377;47.418;18.882;2023-03-04T10:45:44;24.25;;;14.75;;
38379;SDS011;38377;47.418;18.882;2023-03-04T10:48:17;24.38;;;15.50;;
38379;SDS011;38377;47.418;18.882;2023-03-04T10:50:45;25.02;;;14.75;;
38379;SDS011;38377;47.418;18.882;2023-03-04T10:53:22;22.98;;;14.50;;
38379;SDS011;38377;47.418;18.882;2023-03-04T10:55:54;25.77;;;14.93;;
38379;SDS011;38377;47.418;18.882;2023-03-04T10:58:20;21.17;;;14.95;;
38379;SDS011;38377;47.418;18.882;2023-03-04T11:00:57;23.08;;;14.60;;
38379;SDS011;38377;47.418;18.882;2023-03-04T11:03:37;24.13;;;14.43;;
38379;SDS011;38377;47.418;18.882;2023-03-04T11:08:40;21.48;;;13.57;;
38379;SDS011;38377;47.418;18.882;2023-03-04T11:11:20;20.00;;;13.32;;
38379;SDS011;38377;47.418;18.882;2023-03-04T11:13:52;23.33;;;14.45;;
38379;SDS011;38377;47.418;18.882;2023-03-04T11:16:26;21.50;;;14.05;;
38379;SDS011;38377;47.418;18.882;2023-03-04T11:18:57;20.70;;;13.95;;
38379;SDS011;38377;47.418;18.882;2023-03-04T11:21:30;20.75;;;13.23;;
38379;SDS011;38377;47.418;18.882;2023-03-04T11:24:03;20.98;;;12.75;;
38379;SDS011;38377;47.418;18.882;2023-03-04T11:26:35;21.27;;;13.48;;
38379;SDS011;38377;47.418;18.882;2023-03-04T11:31:46;20.50;;;13.00;;
38379;SDS011;38377;47.418;18.882;2023-03-04T11:34:33;22.90;;;13.57;;
38379;SDS011;38377;47.418;18.882;2023-03-04T11:40:03;30.85;;;14.27;;
38379;SDS011;38377;47.418;18.882;2023-03-04T11:42:46;19.00;;;12.15;;
38379;SDS011;38377;47.418;18.882;2023-03-04T11:45:21;25.60;;;14.82;;
38379;SDS011;38377;47.418;18.882;2023-03-04T11:50:22;18.95;;;13.25;;
38379;SDS011;38377;47.418;18.882;2023-03-04T11:53:07;21.63;;;14.20;;
38379;SDS011;38377;47.418;18.882;2023-03-04T11:58:39;25.60;;;14.63;;
38379;SDS011;38377;47.418;18.882;2023-03-04T12:06:57;25.25;;;15.00;;
38379;SDS011;38377;47.418;18.882;2023-03-04T12:21:18;25.35;;;16.85;;
38379;SDS011;38377;47.418;18.882;2023-03-04T12:26:54;28.92;;;19.35;;
38379;SDS011;38377;47.418;18.882;2023-03-04T12:29:46;24.30;;;16.35;;
38379;SDS011;38377;47.418;18.882;2023-03-04T12:40:34;27.98;;;17.13;;
38379;SDS011;38377;47.418;18.882;2023-03-04T12:46:13;24.35;;;16.55;;
38379;SDS011;38377;47.418;18.882;2023-03-04T12:48:49;30.13;;;18.85;;
38379;SDS011;38377;47.418;18.882;2023-03-04T12:57:19;28.50;;;17.02;;
38379;SDS011;38377;47.418;18.882;2023-03-04T13:00:08;27.20;;;18.88;;
38379;SDS011;38377;47.418;18.882;2023-03-04T13:11:07;32.72;;;21.02;;
38379;SDS011;38377;47.418;18.882;2023-03-04T13:14:00;29.02;;;17.13;;
38379;SDS011;38377;47.418;18.882;2023-03-04T13:25:01;25.02;;;14.27;;
38379;SDS011;38377;47.418;18.882;2023-03-04T13:28:01;22.90;;;14.93;;
38379;SDS011;38377;47.418;18.882;2023-03-04T13:43:43;18.40;;;11.88;;
38379;SDS011;38377;47.418;18.882;2023-03-04T13:46:37;21.63;;;12.48;;
38379;SDS011;38377;47.418;18.882;2023-03-04T13:49:05;18.83;;;11.82;;
38379;SDS011;38377;47.418;18.882;2023-03-04T13:51:42;17.65;;;10.07;;
38379;SDS011;38377;47.418;18.882;2023-03-04T13:57:10;17.27;;;10.40;;
38379;SDS011;38377;47.418;18.882;2023-03-04T14:02:22;16.58;;;10.30;;
38379;SDS011;38377;47.418;18.882;2023-03-04T14:07:29;16.20;;;10.55;;
38379;SDS011;38377;47.418;18.882;2023-03-04T14:12:29;18.38;;;11.00;;
38379;SDS011;38377;47.418;18.882;2023-03-04T14:15:00;17.48;;;11.57;;
38379;SDS011;38377;47.418;18.882;2023-03-04T14:17:30;16.90;;;11.27;;
38379;SDS011;38377;47.418;18.882;2023-03-04T14:19:59;16.85;;;10.98;;
38379;SDS011;38377;47.418;18.882;2023-03-04T14:22:26;20.13;;;10.80;;
38379;SDS011;38377;47.418;18.882;2023-03-04T14:25:14;20.65;;;10.73;;
38379;SDS011;38377;47.418;18.882;2023-03-04T14:27:46;18.33;;;11.60;;
38379;SDS011;38377;47.418;18.882;2023-03-04T14:30:22;17.63;;;11.90;;
38379;SDS011;38377;47.418;18.882;2023-03-04T14:32:51;19.88;;;12.13;;
38379;SDS011;38377;47.418;18.882;2023-03-04T14:35:21;20.40;;;10.55;;
38379;SDS011;38377;47.418;18.882;2023-03-04T14:40:25;18.23;;;11.45;;
38379;SDS011;38377;47.418;18.882;2023-03-04T14:43:03;16.50;;;10.00;;
38379;SDS011;38377;47.418;18.882;2023-03-04T14:45:41;13.57;;;9.52;;
38379;SDS011;38377;47.418;18.882;2023-03-04T14:48:08;16.00;;;10.07;;
38379;SDS011;38377;47.418;18.882;2023-03-04T14:50:50;15.38;;;9.77;;
38379;SDS011;38377;47.418;18.882;2023-03-04T14:53:18;23.42;;;10.18;;
38379;SDS011;38377;47.418;18.882;2023-03-04T14:55:56;16.17;;;9.05;;
38379;SDS011;38377;47.418;18.882;2023-03-04T14:58:30;12.93;;;8.38;;
38379;SDS011;38377;47.418;18.882;2023-03-04T15:01:16;14.55;;;8.25;;
38379;SDS011;38377;47.418;18.882;2023-03-04T15:03:56;12.40;;;7.47;;
38379;SDS011;38377;47.418;18.882;2023-03-04T15:06:39;10.85;;;7.57;;
38379;SDS011;38377;47.418;18.882;2023-03-04T15:09:21;16.42;;;7.75;;
38379;SDS011;38377;47.418;18.882;2023-03-04T15:11:52;13.95;;;8.02;;
38379;SDS011;38377;47.418;18.882;2023-03-04T15:17:35;13.82;;;8.50;;
38379;SDS011;38377;47.418;18.882;2023-03-04T15:22:35;14.18;;;8.55;;
38379;SDS011;38377;47.418;18.882;2023-03-04T15:25:04;14.13;;;8.27;;
38379;SDS011;38377;47.418;18.882;2023-03-04T15:27:30;16.13;;;9.50;;
38379;SDS011;38377;47.418;18.882;2023-03-04T15:29:56;19.67;;;9.70;;
38379;SDS011;38377;47.418;18.882;2023-03-04T15:32:24;15.50;;;9.88;;
38379;SDS011;38377;47.418;18.882;2023-03-04T15:34:52;18.60;;;10.77;;
38379;SDS011;38377;47.418;18.882;2023-03-04T15:37:24;20.10;;;12.10;;
38379;SDS011;38377;47.418;18.882;2023-03-04T15:39:53;18.23;;;10.82;;
38379;SDS011;38377;47.418;18.882;2023-03-04T15:42:20;20.35;;;11.10;;
38379;SDS011;38377;47.418;18.882;2023-03-04T15:44:46;24.83;;;13.65;;
38379;SDS011;38377;47.418;18.882;2023-03-04T15:47:11;25.52;;;13.18;;
38379;SDS011;38377;47.418;18.882;2023-03-04T15:49:38;23.42;;;14.20;;
38379;SDS011;38377;47.418;18.882;2023-03-04T15:52:05;22.10;;;13.57;;
38379;SDS011;38377;47.418;18.882;2023-03-04T15:54:35;21.13;;;12.18;;
38379;SDS011;38377;47.418;18.882;2023-03-04T15:57:01;20.55;;;12.40;;
38379;SDS011;38377;47.418;18.882;2023-03-04T15:59:32;22.45;;;12.07;;
38379;SDS011;38377;47.418;18.882;2023-03-04T16:01:58;22.08;;;12.82;;
38379;SDS011;38377;47.418;18.882;2023-03-04T16:04:24;20.38;;;12.30;;
38379;SDS011;38377;47.418;18.882;2023-03-04T16:06:49;20.45;;;12.40;;
38379;SDS011;38377;47.418;18.882;2023-03-04T16:09:16;25.27;;;13.63;;
38379;SDS011;38377;47.418;18.882;2023-03-04T16:11:45;18.75;;;11.18;;
38379;SDS011;38377;47.418;18.882;2023-03-04T16:14:11;21.63;;;12.45;;
38379;SDS011;38377;47.418;18.882;2023-03-04T16:16:39;19.88;;;12.75;;
38379;SDS011;38377;47.418;18.882;2023-03-04T16:19:11;23.25;;;13.38;;